createdAt,value
2023-04-15T00:02:18.246Z,96256.47
2023-04-15T00:06:22.746Z,96248.66
2023-04-15T00:10:25.354Z,96249.25
2023-04-15T00:14:28.145Z,96255.38
2023-04-15T00:18:31.668Z,96247.34
2023-04-15T00:22:36.196Z,96237.66
2023-04-15T00:26:38.909Z,96248.34
2023-04-15T00:30:41.676Z,96233.91
2023-04-15T00:34:44.525Z,96237.19
2023-04-15T00:38:48.557Z,96229.13
2023-04-15T00:42:51.751Z,96219.44
2023-04-15T00:46:55.018Z,96209.75
2023-04-15T00:50:57.866Z,96222.28
2023-04-15T00:55:02.342Z,96215.28
2023-04-15T00:59:06.267Z,96205.38
2023-04-15T01:03:09.977Z,96209.91
2023-04-15T01:07:12.704Z,96210.97
2023-04-15T01:11:17.118Z,96211.38
2023-04-15T01:15:20.439Z,96212.22
2023-04-15T01:19:23.157Z,96217.75
2023-04-15T01:23:26.369Z,96218.34
2023-04-15T01:27:31.281Z,96220.00
2023-04-15T01:31:33.996Z,96213.63
2023-04-15T01:35:37.226Z,96214.47
2023-04-15T01:39:40.423Z,96219.22
2023-04-15T01:43:44.397Z,96212.22
2023-04-15T01:47:47.049Z,96215.13
2023-04-15T01:51:49.718Z,96217.59
2023-04-15T01:55:53.013Z,96212.44
2023-04-15T01:59:57.182Z,96209.13
2023-04-15T02:03:59.868Z,96205.47
2023-04-15T02:08:02.540Z,96219.91
2023-04-15T02:12:05.445Z,96211.44
2023-04-15T02:16:18.572Z,96202.16
2023-04-15T02:20:22.440Z,96201.56
2023-04-15T02:24:25.083Z,96215.38
2023-04-15T02:28:27.738Z,96208.34
2023-04-15T02:32:31.726Z,96199.69
2023-04-15T02:36:34.786Z,96214.53
2023-04-15T02:40:37.660Z,96205.47
2023-04-15T02:44:40.495Z,96202.78
2023-04-15T02:48:44.930Z,96196.59
2023-04-15T02:52:48.191Z,96205.00
2023-04-15T02:56:51.204Z,96207.31
2023-04-15T03:00:54.305Z,96206.28
2023-04-15T03:04:58.264Z,96216.00
2023-04-15T03:09:03.246Z,96215.19
2023-04-15T03:13:05.942Z,96207.56
2023-04-15T03:17:08.547Z,96205.31
2023-04-15T03:21:12.496Z,96211.56
2023-04-15T03:25:15.281Z,96194.88
2023-04-15T03:29:17.849Z,96211.41
2023-04-15T03:33:20.455Z,96204.84
2023-04-15T03:37:24.468Z,96194.97
2023-04-15T03:41:27.042Z,96208.19
2023-04-15T03:45:29.726Z,96207.81
2023-04-15T03:49:32.521Z,96199.19
2023-04-15T03:53:36.719Z,96209.28
2023-04-15T03:57:39.746Z,96200.44
2023-04-15T04:01:42.442Z,96194.06
2023-04-15T04:05:45.185Z,96205.78
2023-04-15T04:09:49.148Z,96201.91
2023-04-15T04:13:51.958Z,96207.91
2023-04-15T04:17:54.632Z,96211.00
2023-04-15T04:21:57.263Z,96215.53
2023-04-15T04:26:01.247Z,96217.41
2023-04-15T04:30:04.193Z,96217.00
2023-04-15T04:34:06.780Z,96224.22
2023-04-15T04:38:09.394Z,96217.19
2023-04-15T04:42:13.343Z,96221.13
2023-04-15T04:46:16.236Z,96228.34
2023-04-15T04:50:18.916Z,96227.31
2023-04-15T04:54:21.523Z,96228.97
2023-04-15T04:58:25.844Z,96231.03
2023-04-15T05:02:29.267Z,96233.28
2023-04-15T05:06:32.675Z,96239.91
2023-04-15T05:10:35.356Z,96241.75
2023-04-15T05:14:39.855Z,96236.63
2023-04-15T05:18:42.552Z,96240.31
2023-04-15T05:22:45.211Z,96242.59
2023-04-15T05:26:48.071Z,96240.50
2023-04-15T05:30:52.183Z,96241.31
2023-04-15T05:34:54.867Z,96245.03
2023-04-15T05:38:57.472Z,96251.63
2023-04-15T05:43:00.072Z,96248.97
2023-04-15T05:47:05.146Z,96250.63
2023-04-15T05:51:07.798Z,96248.75
2023-04-15T05:55:11.115Z,96241.75
2023-04-15T05:59:13.834Z,96245.88
2023-04-15T06:03:18.788Z,96242.16
2023-04-15T06:07:21.539Z,96246.31
2023-04-15T06:11:24.251Z,96246.50
2023-04-15T06:15:27.225Z,96250.41
2023-04-15T06:19:31.923Z,96253.09
2023-04-15T06:23:36.270Z,96253.09
2023-04-15T06:27:39.050Z,96263.16
2023-04-15T06:31:41.790Z,96256.16
2023-04-15T06:35:45.933Z,96259.63
2023-04-15T06:39:48.629Z,96262.31
2023-04-15T06:43:51.477Z,96255.56
2023-04-15T06:47:54.215Z,96255.13
2023-04-15T06:51:58.456Z,96261.94
2023-04-15T06:56:01.237Z,96258.03
2023-04-15T07:00:05.845Z,96263.78
2023-04-15T07:04:08.627Z,96254.94
2023-04-15T07:08:15.716Z,96260.28
2023-04-15T07:12:18.556Z,96268.94
2023-04-15T07:16:22.127Z,96266.84
2023-04-15T07:20:24.810Z,96268.03
2023-04-15T07:24:29.032Z,96267.38
2023-04-15T07:28:31.818Z,96269.69
2023-04-15T07:32:34.662Z,96273.00
2023-04-15T07:36:37.464Z,96268.91
2023-04-15T07:40:42.381Z,96268.06
2023-04-15T07:44:45.183Z,96281.03
2023-04-15T07:48:47.977Z,96269.91
2023-04-15T07:52:51.570Z,96285.97
2023-04-15T07:56:56.154Z,96278.34
2023-04-15T08:00:58.838Z,96279.19
2023-04-15T08:05:03.021Z,96285.56
2023-04-15T08:09:05.756Z,96295.25
2023-04-15T08:13:09.749Z,96288.41
2023-04-15T08:17:12.514Z,96296.06
2023-04-15T08:21:15.492Z,96297.69
2023-04-15T08:25:18.186Z,96298.53
2023-04-15T08:29:22.143Z,96295.84
2023-04-15T08:33:24.954Z,96309.25
2023-04-15T08:37:27.929Z,96311.31
2023-04-15T08:41:35.791Z,96317.50
2023-04-15T08:45:40.630Z,96322.03
2023-04-15T08:49:44.161Z,96319.16
2023-04-15T08:53:47.869Z,96317.09
2023-04-15T08:57:50.687Z,96317.31
2023-04-15T09:01:55.525Z,96322.03
2023-04-15T09:05:58.712Z,96325.50
2023-04-15T09:10:01.652Z,96320.97
2023-04-15T09:14:04.466Z,96324.03
2023-04-15T09:18:08.557Z,96323.38
2023-04-15T09:22:12.024Z,96325.25
2023-04-15T09:26:17.566Z,96330.16
2023-04-15T09:30:20.246Z,96333.91
2023-04-15T09:34:36.854Z,96330.56
2023-04-15T09:38:56.257Z,96334.44
2023-04-15T09:42:59.099Z,96342.25
2023-04-15T09:47:01.835Z,96330.88
2023-04-15T09:51:07.164Z,96350.47
2023-04-15T09:55:10.089Z,96349.84
2023-04-15T09:59:12.859Z,96347.34
2023-04-15T10:03:19.141Z,96349.00
2023-04-15T10:07:24.443Z,96349.16
2023-04-15T10:11:31.572Z,96348.09
2023-04-15T10:15:35.420Z,96352.63
2023-04-15T10:19:39.132Z,96356.13
2023-04-15T10:23:43.986Z,96350.13
2023-04-15T10:27:48.603Z,96348.44
2023-04-15T10:31:51.793Z,96346.34
2023-04-15T10:35:56.752Z,96355.72
2023-04-15T10:40:00.746Z,96359.94
2023-04-15T10:44:05.367Z,96344.59
2023-04-15T10:48:09.175Z,96351.81
2023-04-15T10:52:12.496Z,96340.41
2023-04-15T10:56:18.374Z,96345.59
2023-04-15T11:00:25.470Z,96355.09
2023-04-15T11:04:53.174Z,96356.38
2023-04-15T11:08:59.442Z,96366.22
2023-04-15T11:13:05.532Z,96360.84
2023-04-15T11:17:08.621Z,96360.03
2023-04-15T11:21:11.880Z,96368.28
2023-04-15T11:25:23.795Z,96367.16
2023-04-15T11:29:32.334Z,96367.28
2023-04-15T11:33:35.340Z,96367.22
2023-04-15T11:37:38.001Z,96384.28
2023-04-15T11:41:44.063Z,96387.47
2023-04-15T11:45:53.290Z,96383.06
2023-04-15T11:49:56.046Z,96382.03
2023-04-15T11:53:58.787Z,96385.16
2023-04-15T11:58:09.804Z,96385.69
2023-04-15T12:02:14.568Z,96388.53
2023-04-15T12:06:19.676Z,96399.34
2023-04-15T12:10:25.752Z,96397.72
2023-04-15T12:14:29.843Z,96414.84
2023-04-15T12:18:33.880Z,96422.09
2023-04-15T12:22:39.172Z,96419.78
2023-04-15T12:26:47.030Z,96423.88
2023-04-15T12:30:51.562Z,96431.72
2023-04-15T12:34:55.711Z,96423.75
2023-04-15T12:38:58.424Z,96440.50
2023-04-15T12:43:01.120Z,96437.00
2023-04-15T12:47:04.377Z,96454.34
2023-04-15T12:51:08.482Z,96452.97
2023-04-15T12:55:11.162Z,96450.66
2023-04-15T12:59:14.012Z,96467.47
2023-04-15T13:03:17.136Z,96470.44
2023-04-15T13:07:21.355Z,96471.53
2023-04-15T13:11:24.312Z,96475.66
2023-04-15T13:15:26.931Z,96486.69
2023-04-15T13:19:29.888Z,96480.97
2023-04-15T13:23:33.946Z,96503.03
2023-04-15T13:27:36.873Z,96499.72
2023-04-15T13:31:39.523Z,96505.91
2023-04-15T13:35:42.319Z,96516.28
2023-04-15T13:39:46.792Z,96521.25
2023-04-15T13:43:49.423Z,96513.84
2023-04-15T13:47:52.136Z,96517.16
2023-04-15T13:51:54.823Z,96524.59
2023-04-15T13:55:58.781Z,96522.97
2023-04-15T14:00:01.475Z,96530.38
2023-04-15T14:04:04.633Z,96533.66
2023-04-15T14:08:07.478Z,96534.03
2023-04-15T14:12:11.581Z,96538.16
2023-04-15T14:16:14.240Z,96534.88
2023-04-15T14:20:17.351Z,96542.34
2023-04-15T14:24:20.853Z,96553.16
2023-04-15T14:28:25.523Z,96552.34
2023-04-15T14:32:28.433Z,96550.88
2023-04-15T14:36:31.965Z,96557.72
2023-04-15T14:40:34.806Z,96566.84
2023-04-15T14:44:38.833Z,96568.50
2023-04-15T14:48:41.598Z,96575.09
2023-04-15T14:52:44.241Z,96571.78
2023-04-15T14:56:46.836Z,96579.22
2023-04-15T15:00:50.856Z,96573.19
2023-04-15T15:04:53.764Z,96585.81
2023-04-15T15:08:56.862Z,96586.44
2023-04-15T15:12:59.830Z,96593.66
2023-04-15T15:17:04.835Z,96608.19
2023-04-15T15:21:07.480Z,96607.19
2023-04-15T15:25:10.284Z,96607.78
2023-04-15T15:29:12.923Z,96624.34
2023-04-15T15:33:16.950Z,96622.69
2023-04-15T15:37:19.655Z,96627.88
2023-04-15T15:41:22.457Z,96629.31
2023-04-15T15:45:25.135Z,96630.56
2023-04-15T15:49:29.242Z,96638.44
2023-04-15T15:53:32.824Z,96640.28
2023-04-15T15:57:35.532Z,96640.25
2023-04-15T16:01:38.820Z,96648.13
2023-04-15T16:05:42.818Z,96645.19
2023-04-15T16:09:45.795Z,96650.72
2023-04-15T16:13:48.432Z,96655.09
2023-04-15T16:17:51.551Z,96660.41
2023-04-15T16:21:55.681Z,96662.75
2023-04-15T16:25:58.510Z,96668.13
2023-04-15T16:30:01.328Z,96676.03
2023-04-15T16:34:03.952Z,96679.31
2023-04-15T16:38:08.229Z,96681.78
2023-04-15T16:42:11.172Z,96691.06
2023-04-15T16:46:14.058Z,96692.72
2023-04-15T16:50:16.697Z,96696.44
2023-04-15T16:54:20.688Z,96694.56
2023-04-15T16:58:23.294Z,96705.53
2023-04-15T17:02:26.420Z,96705.97
2023-04-15T17:06:29.421Z,96709.50
2023-04-15T17:10:33.521Z,96718.59
2023-04-15T17:14:36.139Z,96720.28
2023-04-15T17:18:39.296Z,96730.22
2023-04-15T17:22:41.960Z,96725.69
2023-04-15T17:26:46.941Z,96736.44
2023-04-15T17:30:49.638Z,96753.81
2023-04-15T17:34:52.339Z,96750.91
2023-04-15T17:38:56.494Z,96763.31
2023-04-15T17:43:00.545Z,96772.22
2023-04-15T17:47:03.465Z,96772.41
2023-04-15T17:51:06.166Z,96774.50
2023-04-15T17:55:09.633Z,96776.34
2023-04-15T17:59:13.702Z,96778.63
2023-04-15T18:03:16.437Z,96786.69
2023-04-15T18:07:19.330Z,96793.28
2023-04-15T18:11:22.161Z,96807.38
2023-04-15T18:15:26.398Z,96812.09
2023-04-15T18:19:29.093Z,96817.91
2023-04-15T18:23:31.786Z,96823.50
2023-04-15T18:27:35.563Z,96828.69
2023-04-15T18:31:39.622Z,96836.94
2023-04-15T18:35:42.988Z,96832.16
2023-04-15T18:39:45.681Z,96845.81
2023-04-15T18:43:48.338Z,96853.88
2023-04-15T18:47:52.502Z,96863.16
2023-04-15T18:51:55.572Z,96866.03
2023-04-15T18:56:00.791Z,96873.47
2023-04-15T19:00:03.646Z,96878.47
2023-04-15T19:04:07.894Z,96882.97
2023-04-15T19:08:11.709Z,96881.34
2023-04-15T19:12:14.373Z,96887.31
2023-04-15T19:16:17.144Z,96898.28
2023-04-15T19:20:21.229Z,96901.97
2023-04-15T19:24:23.951Z,96905.28
2023-04-15T19:28:28.265Z,96912.72
2023-04-15T19:32:30.955Z,96928.63
2023-04-15T19:36:35.096Z,96926.97
2023-04-15T19:40:37.980Z,96931.53
2023-04-15T19:44:42.778Z,96932.53
2023-04-15T19:48:45.485Z,96926.53
2023-04-15T19:52:49.801Z,96928.59
2023-04-15T19:56:52.619Z,96931.47
2023-04-15T20:00:55.456Z,96936.03
2023-04-15T20:04:58.112Z,96930.81
2023-04-15T20:09:02.234Z,96948.44
2023-04-15T20:13:04.955Z,96944.47
2023-04-15T20:17:07.619Z,96946.31
2023-04-15T20:21:10.259Z,96952.53
2023-04-15T20:25:14.461Z,96956.66
2023-04-15T20:29:17.183Z,96953.53
2023-04-15T20:33:19.801Z,96953.72
2023-04-15T20:37:22.583Z,96964.66
2023-04-15T20:41:26.683Z,96972.53
2023-04-15T20:45:30.510Z,96969.03
2023-04-15T20:49:35.548Z,96978.94
2023-04-15T20:53:38.413Z,96974.59
2023-04-15T20:57:42.433Z,96968.22
2023-04-15T21:01:46.066Z,96978.72
2023-04-15T21:05:49.378Z,96981.81
2023-04-15T21:09:52.026Z,96984.31
2023-04-15T21:13:56.005Z,96988.03
2023-04-15T21:17:59.033Z,97000.44
2023-04-15T21:22:01.709Z,97003.13
2023-04-15T21:26:04.586Z,97004.31
2023-04-15T21:30:09.808Z,97014.06
2023-04-15T21:34:12.559Z,97012.38
2023-04-15T21:38:15.306Z,97014.88
2023-04-15T21:42:17.978Z,97024.97
2023-04-15T21:46:25.301Z,97028.09
2023-04-15T21:50:29.878Z,97032.44
2023-04-15T21:54:33.640Z,97028.94
2023-04-15T21:58:36.270Z,97033.09
2023-04-15T22:02:40.370Z,97039.47
2023-04-15T22:06:43.069Z,97040.91
2023-04-15T22:10:45.748Z,97047.50
2023-04-15T22:14:48.374Z,97047.25
2023-04-15T22:18:52.407Z,97052.63
2023-04-15T22:22:55.014Z,97057.38
2023-04-15T22:26:59.011Z,97067.72
2023-04-15T22:31:02.476Z,97065.03
2023-04-15T22:35:07.317Z,97065.22
2023-04-15T22:39:09.998Z,97075.56
2023-04-15T22:43:12.635Z,97072.44
2023-04-15T22:47:15.366Z,97082.97
2023-04-15T22:51:23.918Z,97084.03
2023-04-15T22:55:26.549Z,97086.72
2023-04-15T22:59:29.205Z,97088.53
2023-04-15T23:03:32.149Z,97089.22
2023-04-15T23:07:44.201Z,97082.53
2023-04-15T23:11:48.028Z,97095.56
2023-04-15T23:15:50.684Z,97090.19
2023-04-15T23:19:53.312Z,97090.56
2023-04-15T23:23:57.283Z,97099.63
2023-04-15T23:27:59.893Z,97097.78
2023-04-15T23:32:02.898Z,97097.97
2023-04-15T23:36:06.371Z,97095.66
2023-04-15T23:40:11.889Z,97104.34
2023-04-15T23:44:14.504Z,97110.38
2023-04-15T23:48:17.113Z,97106.47
2023-04-15T23:52:19.746Z,97100.47
2023-04-15T23:56:23.698Z,97100.28
